Time;durP1;ratioP1;P1;durP2;ratioP2;P2;SDS_P1;SDS_P2;PMS_P1;PMS_P2;Temp;Humidity;BMP_temperature;BMP_pressure;BME280_temperature;BME280_humidity;BME280_pressure;Samples;Min_cycle;Max_cycle;Signal;HPM_P1;HPM_P2
2023/08/28 00:00:45;;;;;;;0.60;0.20;;;;;;;12.02;100.00;100674.75;5050068;28;20772;-47
2023/08/28 00:03:10;;;;;;;5.32;0.57;;;;;;;12.19;100.00;100662.78;5046805;28;20040;-50
2023/08/28 00:05:35;;;;;;;2.63;1.13;;;;;;;12.28;100.00;100658.94;5060195;28;20571;-49
2023/08/28 00:08:02;;;;;;;1.92;0.50;;;;;;;12.38;100.00;100659.38;5047605;28;20033;-50
2023/08/28 00:10:28;;;;;;;7.38;0.60;;;;;;;12.43;100.00;100651.63;5056071;28;20441;-47
2023/08/28 00:12:53;;;;;;;3.33;1.38;;;;;;;12.52;100.00;100660.28;5059168;28;20117;-47
2023/08/28 00:15:19;;;;;;;1.10;0.50;;;;;;;12.65;100.00;100652.34;5056803;28;20043;-49
2023/08/28 00:17:44;;;;;;;0.65;0.43;;;;;;;12.73;100.00;100646.03;5054564;28;20030;-46
2023/08/28 00:20:09;;;;;;;1.92;0.60;;;;;;;12.87;100.00;100647.66;5049184;28;20493;-47
2023/08/28 00:22:35;;;;;;;0.85;0.80;;;;;;;12.92;100.00;100649.72;5058623;28;20033;-48
2023/08/28 00:25:02;;;;;;;1.80;0.88;;;;;;;12.92;100.00;100646.25;5048294;28;20507;-49
2023/08/28 00:27:28;;;;;;;1.55;0.30;;;;;;;12.89;100.00;100652.81;5057494;28;20210;-49
2023/08/28 00:29:54;;;;;;;1.42;0.85;;;;;;;12.90;100.00;100646.44;5046751;28;20564;-47
2023/08/28 00:32:19;;;;;;;2.70;0.40;;;;;;;12.90;100.00;100646.44;5057483;28;20036;-50
2023/08/28 00:34:44;;;;;;;4.57;0.50;;;;;;;12.93;100.00;100650.53;5055959;28;20020;-49
2023/08/28 00:37:12;;;;;;;0.95;0.55;;;;;;;13.00;100.00;100654.03;5050952;28;20040;-50
2023/08/28 00:39:37;;;;;;;2.03;0.13;;;;;;;13.04;100.00;100653.44;5056071;28;20397;-46
2023/08/28 00:42:02;;;;;;;2.40;0.40;;;;;;;13.09;100.00;100655.50;5056216;28;20558;-47
2023/08/28 00:44:28;;;;;;;0.43;0.20;;;;;;;13.13;100.00;100650.59;5050973;28;20037;-47
2023/08/28 00:46:53;;;;;;;2.28;0.17;;;;;;;13.08;100.00;100654.66;5052461;28;20063;-47
2023/08/28 00:49:19;;;;;;;2.83;0.88;;;;;;;13.10;100.00;100646.47;5052395;28;20037;-45
2023/08/28 00:51:44;;;;;;;1.20;0.90;;;;;;;13.12;100.00;100643.63;5052054;28;20032;-50
2023/08/28 00:54:09;;;;;;;0.63;0.38;;;;;;;13.14;100.00;100638.91;5050616;28;20043;-46
2023/08/28 00:56:36;;;;;;;0.63;0.17;;;;;;;13.08;100.00;100643.19;5056216;28;20028;-46
2023/08/28 00:59:02;;;;;;;2.72;1.02;;;;;;;13.02;100.00;100638.69;5054366;28;20029;-50
2023/08/28 01:01:28;;;;;;;0.88;0.22;;;;;;;12.99;100.00;100641.78;5047106;28;20033;-46
2023/08/28 01:03:53;;;;;;;0.47;0.10;;;;;;;12.90;100.00;100641.13;5054046;28;20075;-52
2023/08/28 01:06:47;;;;;;;0.57;0.30;;;;;;;12.96;100.00;100642.16;5060166;28;20111;-49
2023/08/28 01:09:20;;;;;;;1.23;0.43;;;;;;;12.93;100.00;100645.22;5056775;28;20052;-47
2023/08/28 01:12:08;;;;;;;0.20;0.20;;;;;;;12.96;100.00;100644.81;5062892;28;20020;-49
2023/08/28 01:14:46;;;;;;;2.53;0.15;;;;;;;12.92;100.00;100643.59;5050124;28;20118;-46
2023/08/28 01:17:14;;;;;;;0.20;0.20;;;;;;;12.94;100.00;100649.53;5051794;28;20550;-48
2023/08/28 01:19:42;;;;;;;0.30;0.15;;;;;;;12.93;100.00;100638.06;5050520;28;20550;-49
2023/08/28 01:22:18;;;;;;;0.80;0.28;;;;;;;12.83;100.00;100646.44;5053671;28;20156;-50
2023/08/28 01:24:51;;;;;;;4.40;0.68;;;;;;;12.78;100.00;100648.91;5069184;28;20039;-50
2023/08/28 01:27:18;;;;;;;0.30;0.10;;;;;;;12.71;100.00;100645.41;5050844;28;20043;-47
2023/08/28 01:29:43;;;;;;;0.10;0.10;;;;;;;12.57;100.00;100660.50;5055024;28;20431;-50
2023/08/28 01:32:09;;;;;;;0.15;0.10;;;;;;;12.50;100.00;100654.34;5055536;28;20155;-50
2023/08/28 01:34:35;;;;;;;2.47;0.20;;;;;;;12.43;100.00;100659.63;5054105;28;20465;-47
2023/08/28 01:37:11;;;;;;;0.28;0.00;;;;;;;12.44;100.00;100652.44;5050387;28;20023;-49
2023/08/28 01:39:42;;;;;;;1.02;0.38;;;;;;;12.41;100.00;100658.16;5060486;28;20423;-46
2023/08/28 01:42:09;;;;;;;0.10;0.10;;;;;;;12.38;100.00;100655.91;5051083;28;20044;-50
2023/08/28 01:44:36;;;;;;;0.30;0.28;;;;;;;12.29;100.00;100649.13;5055826;28;20029;-47
2023/08/28 01:47:03;;;;;;;0.40;0.22;;;;;;;12.22;100.00;100643.78;5053830;28;20036;-50
2023/08/28 01:49:31;;;;;;;0.30;0.10;;;;;;;11.98;100.00;100647.78;5051613;28;20543;-48
2023/08/28 01:51:57;;;;;;;0.85;0.30;;;;;;;12.03;100.00;100641.84;5051508;28;20374;-51
2023/08/28 01:54:23;;;;;;;0.40;0.10;;;;;;;12.04;100.00;100641.66;5054834;28;20038;-46
2023/08/28 01:56:49;;;;;;;0.50;0.20;;;;;;;12.09;100.00;100644.53;5051024;28;20222;-45
2023/08/28 01:59:14;;;;;;;0.98;0.05;;;;;;;12.02;100.00;100638.38;5045119;28;20024;-48
2023/08/28 02:01:40;;;;;;;1.40;0.10;;;;;;;11.97;100.00;100640.78;5045973;28;20480;-49
2023/08/28 02:04:06;;;;;;;0.10;0.00;;;;;;;11.95;100.00;100646.31;5049518;28;20043;-49
2023/08/28 02:06:31;;;;;;;0.30;0.20;;;;;;;11.87;100.00;100641.13;5046781;28;20183;-47
2023/08/28 02:08:56;;;;;;;1.17;0.40;;;;;;;11.92;100.00;100648.53;5055835;28;20055;-46
2023/08/28 02:11:22;;;;;;;0.28;0.17;;;;;;;11.90;100.00;100638.13;5055008;28;20043;-48
2023/08/28 02:13:47;;;;;;;2.55;0.38;;;;;;;11.85;100.00;100647.63;5062874;28;20120;-47
2023/08/28 02:16:12;;;;;;;6.03;0.77;;;;;;;11.81;100.00;100649.06;5047108;28;20111;-51
2023/08/28 02:18:38;;;;;;;0.70;0.03;;;;;;;11.78;100.00;100647.59;5060611;28;20039;-46
2023/08/28 02:21:03;;;;;;;1.08;0.03;;;;;;;11.73;100.00;100648.19;5053594;28;20024;-50
2023/08/28 02:23:29;;;;;;;0.30;0.10;;;;;;;11.64;100.00;100645.88;5049386;28;20036;-49
2023/08/28 02:25:54;;;;;;;3.33;0.10;;;;;;;11.62;100.00;100646.06;5049118;28;20067;-46
2023/08/28 02:28:20;;;;;;;0.00;0.00;;;;;;;11.67;100.00;100641.00;5060274;28;20089;-48
2023/08/28 02:30:46;;;;;;;0.15;0.00;;;;;;;11.57;100.00;100645.84;5043941;28;20048;-49
2023/08/28 02:33:12;;;;;;;1.23;0.32;;;;;;;11.46;100.00;100652.50;5048578;28;20132;-49
2023/08/28 02:35:37;;;;;;;0.75;0.75;;;;;;;11.37;100.00;100650.97;5047104;28;20432;-45
2023/08/28 02:38:03;;;;;;;0.45;0.10;;;;;;;11.28;100.00;100654.78;5047489;28;20499;-47
2023/08/28 02:40:28;;;;;;;0.93;0.08;;;;;;;11.19;100.00;100648.78;5059452;28;20099;-50
2023/08/28 02:42:54;;;;;;;0.10;0.10;;;;;;;11.22;100.00;100650.25;5051097;28;20119;-48
2023/08/28 02:45:19;;;;;;;0.10;0.05;;;;;;;11.06;100.00;100654.78;5052369;28;20033;-47
2023/08/28 02:47:45;;;;;;;0.55;0.55;;;;;;;11.06;100.00;100654.78;5062732;28;20044;-46
2023/08/28 02:50:10;;;;;;;0.13;0.00;;;;;;;11.03;100.00;100651.72;5044734;28;20041;-47
2023/08/28 02:52:35;;;;;;;3.03;0.20;;;;;;;11.10;100.00;100648.09;5055582;28;20023;-47
2023/08/28 02:55:00;;;;;;;0.13;0.13;;;;;;;11.17;100.00;100652.66;5050912;28;20037;-47
2023/08/28 02:57:26;;;;;;;0.05;0.05;;;;;;;11.21;100.00;100648.63;5049543;28;20117;-45
2023/08/28 02:59:51;;;;;;;0.20;0.20;;;;;;;11.19;100.00;100642.66;5051991;28;20029;-47
2023/08/28 03:02:16;;;;;;;0.40;0.03;;;;;;;11.03;100.00;100655.19;5053685;28;20033;-48
2023/08/28 03:04:44;;;;;;;0.55;0.13;;;;;;;11.00;100.00;100647.59;5049496;28;20032;-50
2023/08/28 03:07:10;;;;;;;12.48;0.85;;;;;;;11.02;100.00;100652.72;5054776;28;20044;-48
2023/08/28 03:09:35;;;;;;;0.20;0.20;;;;;;;10.99;100.00;100650.44;5055710;28;20060;-50
2023/08/28 03:12:00;;;;;;;0.57;0.20;;;;;;;10.89;100.00;100651.59;5052235;28;20143;-50
2023/08/28 03:14:26;;;;;;;1.13;0.40;;;;;;;10.62;100.00;100654.97;5054472;28;20457;-49
2023/08/28 03:16:51;;;;;;;1.08;0.17;;;;;;;10.74;100.00;100657.94;5052372;28;20625;-47
2023/08/28 03:19:16;;;;;;;1.38;0.15;;;;;;;10.76;100.00;100655.91;5050214;28;20606;-49
2023/08/28 03:21:42;;;;;;;1.23;0.13;;;;;;;10.42;100.00;100660.84;5054865;28;20115;-46
2023/08/28 03:24:07;;;;;;;0.00;0.00;;;;;;;10.45;100.00;100672.91;5045999;28;20451;-48
2023/08/28 03:26:33;;;;;;;1.10;0.20;;;;;;;10.72;100.00;100676.69;5054552;28;20033;-51
2023/08/28 03:28:59;;;;;;;0.40;0.03;;;;;;;10.93;100.00;100662.63;5054743;28;20029;-46
2023/08/28 03:31:25;;;;;;;0.55;0.00;;;;;;;11.03;100.00;100660.50;5051750;28;20052;-49
2023/08/28 03:33:51;;;;;;;0.17;0.08;;;;;;;11.09;100.00;100653.59;5052938;28;20029;-47
2023/08/28 03:36:16;;;;;;;0.20;0.10;;;;;;;11.21;100.00;100661.88;5055799;28;20031;-49
2023/08/28 03:38:41;;;;;;;0.80;0.50;;;;;;;11.20;100.00;100686.75;5051614;28;20033;-46
2023/08/28 03:41:08;;;;;;;0.00;0.00;;;;;;;11.00;100.00;100753.75;5060243;28;20043;-50
2023/08/28 03:43:34;;;;;;;0.03;0.03;;;;;;;10.82;100.00;100769.25;5062382;28;20082;-50
2023/08/28 03:45:59;;;;;;;0.00;0.00;;;;;;;10.86;100.00;100787.22;5052696;28;20036;-48
2023/08/28 03:48:24;;;;;;;0.10;0.00;;;;;;;11.04;100.00;100799.28;5056408;28;20109;-48
2023/08/28 03:50:50;;;;;;;0.10;0.00;;;;;;;11.25;100.00;100819.72;5055052;28;20029;-47
2023/08/28 03:53:15;;;;;;;2.63;0.00;;;;;;;11.34;100.00;100835.38;5056743;28;20028;-46
2023/08/28 03:55:40;;;;;;;0.25;0.10;;;;;;;11.42;100.00;100854.84;5049904;28;20032;-45
2023/08/28 03:58:07;;;;;;;0.35;0.25;;;;;;;11.57;100.00;100871.56;5056007;28;20060;-46
2023/08/28 04:00:32;;;;;;;0.00;0.00;;;;;;;11.50;100.00;100879.44;5055879;28;20033;-49
2023/08/28 04:02:58;;;;;;;0.38;0.10;;;;;;;11.56;100.00;100899.13;5061228;28;20104;-50
2023/08/28 04:05:24;;;;;;;1.65;0.10;;;;;;;11.44;100.00;100935.16;5060752;28;20032;-52
2023/08/28 04:07:50;;;;;;;0.10;0.00;;;;;;;11.41;100.00;100944.31;5057036;28;20375;-49
2023/08/28 04:10:15;;;;;;;0.05;0.00;;;;;;;11.38;100.00;100954.44;5060834;28;20032;-51
2023/08/28 04:12:41;;;;;;;0.38;0.08;;;;;;;11.30;100.00;100963.34;5060316;28;20028;-48
2023/08/28 04:15:10;;;;;;;0.00;0.00;;;;;;;11.31;100.00;100955.19;5058060;28;20020;-48
2023/08/28 04:17:35;;;;;;;0.93;0.10;;;;;;;11.39;100.00;100919.75;5064485;28;20082;-45
2023/08/28 04:20:12;;;;;;;4.57;0.77;;;;;;;11.30;100.00;100887.16;5051684;28;20050;-47
2023/08/28 04:22:41;;;;;;;0.20;0.20;;;;;;;11.09;100.00;100850.78;5056594;28;20035;-51
2023/08/28 04:25:07;;;;;;;2.40;0.08;;;;;;;11.08;100.00;100833.22;5048066;28;20358;-49
2023/08/28 04:27:33;;;;;;;0.80;0.10;;;;;;;11.09;100.00;100812.81;5065526;28;20036;-48
2023/08/28 04:29:59;;;;;;;0.08;0.00;;;;;;;11.03;100.00;100795.81;5052215;28;20452;-46
2023/08/28 04:32:24;;;;;;;0.00;0.00;;;;;;;10.97;100.00;100782.44;5046113;28;20490;-51
2023/08/28 04:34:49;;;;;;;0.55;0.10;;;;;;;10.93;100.00;100776.72;5052176;28;20040;-50
2023/08/28 04:37:15;;;;;;;0.22;0.10;;;;;;;10.88;100.00;100768.47;5063106;28;20430;-47
2023/08/28 04:39:40;;;;;;;0.85;0.00;;;;;;;10.72;100.00;100768.69;5055884;28;20103;-49
2023/08/28 04:42:05;;;;;;;0.10;0.00;;;;;;;10.46;100.00;100818.53;5053464;28;20116;-47
2023/08/28 04:44:30;;;;;;;0.55;0.20;;;;;;;10.35;100.00;100882.59;5055274;28;20043;-51
2023/08/28 04:46:58;;;;;;;0.75;0.08;;;;;;;10.33;100.00;100923.53;5051172;28;20032;-47
2023/08/28 04:49:23;;;;;;;0.13;0.10;;;;;;;10.22;100.00;100944.13;5053665;28;20558;-48
2023/08/28 04:51:49;;;;;;;0.00;0.00;;;;;;;10.31;100.00;100973.25;5056313;28;20033;-50
2023/08/28 04:54:14;;;;;;;0.65;0.20;;;;;;;10.50;100.00;100988.66;5056155;28;20595;-47
2023/08/28 04:56:39;;;;;;;0.75;0.30;;;;;;;10.45;100.00;100972.47;5055253;28;20040;-51
2023/08/28 04:59:05;;;;;;;0.00;0.00;;;;;;;10.42;100.00;100938.34;5056664;28;20036;-49
2023/08/28 05:01:31;;;;;;;0.08;0.00;;;;;;;10.39;100.00;100904.25;5067249;28;20036;-46
2023/08/28 05:03:57;;;;;;;0.30;0.10;;;;;;;10.43;100.00;100881.72;5051517;28;20075;-48
2023/08/28 05:06:22;;;;;;;0.10;0.10;;;;;;;10.44;100.00;100855.00;5057879;28;20039;-48
2023/08/28 05:08:47;;;;;;;0.00;0.00;;;;;;;10.33;100.00;100825.47;5056654;28;20029;-48
2023/08/28 05:11:13;;;;;;;0.10;0.05;;;;;;;10.48;100.00;100821.00;5057464;28;20036;-49
2023/08/28 05:13:38;;;;;;;2.90;0.38;;;;;;;10.50;100.00;100803.06;5048065;28;20045;-47
2023/08/28 05:16:03;;;;;;;0.00;0.00;;;;;;;10.45;100.00;100787.72;5060371;28;20049;-52
2023/08/28 05:18:29;;;;;;;0.00;0.00;;;;;;;10.00;100.00;100786.00;5051366;28;20550;-47
2023/08/28 05:20:54;;;;;;;0.20;0.00;;;;;;;9.89;100.00;100794.38;5053150;28;20036;-46
2023/08/28 05:23:25;;;;;;;0.00;0.00;;;;;;;9.95;100.00;100818.31;5053034;28;20064;-47
2023/08/28 05:25:54;;;;;;;0.35;0.00;;;;;;;10.00;100.00;100831.84;5054795;28;20405;-50
2023/08/28 05:28:20;;;;;;;0.00;0.00;;;;;;;10.07;100.00;100866.41;5053319;28;20028;-47
2023/08/28 05:30:45;;;;;;;0.10;0.08;;;;;;;10.14;100.00;100893.81;5059463;28;20080;-51
2023/08/28 05:33:11;;;;;;;0.68;0.40;;;;;;;10.14;100.00;100916.84;5053630;28;20039;-47
2023/08/28 05:35:36;;;;;;;0.20;0.00;;;;;;;10.04;100.00;100943.56;5057359;28;20059;-49
2023/08/28 05:38:02;;;;;;;0.03;0.03;;;;;;;10.11;100.00;100978.97;5057172;28;20625;-47
2023/08/28 05:40:27;;;;;;;0.10;0.10;;;;;;;10.15;100.00;100980.28;5049222;28;20405;-47
2023/08/28 05:42:53;;;;;;;0.03;0.03;;;;;;;9.76;100.00;100969.75;5052480;28;20071;-50
2023/08/28 05:45:18;;;;;;;3.10;0.80;;;;;;;9.64;100.00;100964.00;5052498;28;20043;-46
2023/08/28 05:47:43;;;;;;;0.20;0.10;;;;;;;9.53;100.00;100964.41;5054611;28;20548;-48
2023/08/28 05:50:09;;;;;;;0.35;0.10;;;;;;;9.78;100.00;100965.94;5062051;28;20028;-49
2023/08/28 05:52:36;;;;;;;1.55;0.00;;;;;;;9.93;100.00;100965.19;5048350;28;20040;-50
2023/08/28 05:55:03;;;;;;;0.00;0.00;;;;;;;9.98;100.00;100949.59;5063614;28;20127;-48
2023/08/28 05:57:28;;;;;;;4.22;0.17;;;;;;;10.00;100.00;100929.88;5054199;28;20036;-49
2023/08/28 05:59:54;;;;;;;0.10;0.00;;;;;;;10.05;100.00;100913.44;5056710;28;20038;-47
2023/08/28 06:02:20;;;;;;;0.35;0.20;;;;;;;10.10;100.00;100900.50;5055677;28;20123;-48
2023/08/28 06:04:47;;;;;;;0.20;0.00;;;;;;;10.35;100.00;100881.75;5052919;28;20033;-47
2023/08/28 06:07:13;;;;;;;0.00;0.00;;;;;;;10.41;100.00;100871.25;5048848;28;20071;-48
2023/08/28 06:09:38;;;;;;;0.10;0.00;;;;;;;10.65;100.00;100856.94;5063390;28;20485;-47
2023/08/28 06:12:04;;;;;;;0.25;0.22;;;;;;;10.42;100.00;100851.69;5053164;28;20037;-49
2023/08/28 06:14:29;;;;;;;2.78;0.15;;;;;;;10.43;100.00;100855.19;5050067;28;20091;-49
2023/08/28 06:16:55;;;;;;;0.63;0.10;;;;;;;10.64;100.00;100857.94;5059735;28;20035;-50
2023/08/28 06:19:20;;;;;;;0.10;0.00;;;;;;;10.35;100.00;100885.25;5054340;28;20588;-51
2023/08/28 06:21:45;;;;;;;0.08;0.08;;;;;;;10.82;100.00;100937.16;5059447;28;20042;-47
2023/08/28 06:24:12;;;;;;;0.10;0.10;;;;;;;11.09;100.00;100964.88;5053500;28;20167;-50
2023/08/28 06:26:37;;;;;;;0.35;0.00;;;;;;;11.21;100.00;101012.22;5058783;28;20025;-49
2023/08/28 06:29:03;;;;;;;0.30;0.10;;;;;;;11.36;100.00;101034.31;5057521;28;20677;-52
2023/08/28 06:31:28;;;;;;;1.45;0.22;;;;;;;11.56;100.00;101043.38;5048205;28;20127;-49
2023/08/28 06:33:54;;;;;;;1.77;0.20;;;;;;;11.79;100.00;100999.91;5062592;28;20365;-50
2023/08/28 06:36:19;;;;;;;1.85;0.10;;;;;;;11.83;100.00;100969.31;5052962;28;20102;-51
2023/08/28 06:38:45;;;;;;;0.10;0.10;;;;;;;11.92;100.00;100946.13;5057801;28;20489;-47
2023/08/28 06:41:11;;;;;;;0.30;0.10;;;;;;;12.19;100.00;100942.72;5044879;28;20159;-48
2023/08/28 06:43:36;;;;;;;0.43;0.22;;;;;;;12.49;100.00;100925.78;5049917;28;20033;-51
2023/08/28 06:46:01;;;;;;;0.13;0.00;;;;;;;12.63;100.00;100917.72;5060169;28;20099;-50
2023/08/28 06:48:27;;;;;;;0.22;0.22;;;;;;;12.90;100.00;100919.75;5052163;28;20511;-51
2023/08/28 06:50:52;;;;;;;0.35;0.10;;;;;;;12.97;100.00;100901.97;5057144;28;20047;-49
2023/08/28 06:53:17;;;;;;;0.85;0.52;;;;;;;12.70;100.00;100968.34;5052870;28;20029;-48
2023/08/28 06:55:43;;;;;;;0.10;0.00;;;;;;;13.00;100.00;101040.81;5046551;28;20494;-53
2023/08/28 06:58:08;;;;;;;0.00;0.00;;;;;;;13.34;100.00;101102.34;5048556;28;20095;-53
2023/08/28 07:00:33;;;;;;;0.15;0.15;;;;;;;13.59;100.00;101124.03;5052091;28;20378;-48
2023/08/28 07:02:59;;;;;;;0.20;0.20;;;;;;;13.83;100.00;101138.72;5055187;28;20040;-51
2023/08/28 07:05:24;;;;;;;3.75;0.30;;;;;;;14.16;100.00;101153.03;5053659;28;20031;-47
2023/08/28 07:07:49;;;;;;;0.15;0.00;;;;;;;14.38;100.00;101161.78;5059831;28;20032;-50
2023/08/28 07:10:15;;;;;;;0.30;0.10;;;;;;;14.64;100.00;101168.25;5056879;28;20033;-52
2023/08/28 07:12:40;;;;;;;0.43;0.30;;;;;;;14.89;100.00;101192.53;5058572;28;20356;-49
2023/08/28 07:15:26;;;;;;;0.30;0.22;;;;;;;15.22;100.00;101207.78;5054974;28;20423;-51
2023/08/28 07:17:51;;;;;;;0.20;0.00;;;;;;;15.37;100.00;101211.09;5038926;28;20107;-47
2023/08/28 07:20:17;;;;;;;0.20;0.20;;;;;;;15.48;100.00;101210.47;5054590;28;20029;-50
2023/08/28 07:22:42;;;;;;;0.20;0.10;;;;;;;15.66;100.00;101231.22;5053940;28;20450;-51
2023/08/28 07:25:08;;;;;;;0.30;0.28;;;;;;;15.80;100.00;101240.13;5053644;28;20039;-49
2023/08/28 07:27:33;;;;;;;0.08;0.08;;;;;;;15.88;100.00;101241.75;5051537;28;20020;-51
2023/08/28 07:29:59;;;;;;;0.80;0.65;;;;;;;15.95;100.00;101241.72;5051135;28;20086;-50
2023/08/28 07:32:24;;;;;;;0.20;0.15;;;;;;;16.13;100.00;101242.75;5050800;28;20388;-53
2023/08/28 07:34:49;;;;;;;0.45;0.40;;;;;;;16.46;100.00;101241.00;5055209;28;20500;-51
2023/08/28 07:37:15;;;;;;;0.50;0.30;;;;;;;16.58;100.00;101236.63;5053489;28;20033;-49
2023/08/28 07:39:40;;;;;;;0.45;0.45;;;;;;;16.73;100.00;101237.19;5062037;28;20031;-49
2023/08/28 07:42:05;;;;;;;0.10;0.10;;;;;;;16.87;100.00;101227.25;5067330;28;20507;-52
2023/08/28 07:44:31;;;;;;;1.42;0.43;;;;;;;16.89;100.00;101227.88;5055440;28;20029;-49
2023/08/28 07:46:56;;;;;;;1.13;0.20;;;;;;;17.04;100.00;101216.88;5055454;28;20095;-52
2023/08/28 07:49:21;;;;;;;0.22;0.22;;;;;;;17.16;100.00;101211.63;5052090;28;20053;-51
2023/08/28 07:51:47;;;;;;;1.50;0.13;;;;;;;17.06;100.00;101205.91;5065811;28;20028;-50
2023/08/28 07:54:12;;;;;;;1.35;0.35;;;;;;;17.08;100.00;101212.69;5056409;28;20029;-51
2023/08/28 07:56:38;;;;;;;0.00;0.00;;;;;;;17.06;100.00;101204.06;5058260;28;20809;-53
2023/08/28 07:59:06;;;;;;;0.63;0.38;;;;;;;17.19;100.00;101203.13;5058139;28;20445;-50
2023/08/28 08:01:31;;;;;;;1.98;0.10;;;;;;;17.37;100.00;101205.06;5048968;28;21025;-48
2023/08/28 08:03:57;;;;;;;0.32;0.10;;;;;;;17.60;100.00;101207.97;5056355;28;20025;-47
2023/08/28 08:06:23;;;;;;;2.05;0.98;;;;;;;17.87;100.00;101218.50;5055565;28;20025;-53
2023/08/28 08:08:48;;;;;;;3.38;1.98;;;;;;;17.97;100.00;101213.44;5077154;28;20032;-52
2023/08/28 08:11:14;;;;;;;30.58;13.10;;;;;;;18.08;100.00;101218.06;5053116;28;20078;-51
2023/08/28 08:13:39;;;;;;;15.15;7.78;;;;;;;18.31;100.00;101216.59;5057381;28;20209;-52
2023/08/28 08:16:05;;;;;;;4.30;1.67;;;;;;;18.41;100.00;101216.88;5054213;28;20033;-49
2023/08/28 08:18:30;;;;;;;2.97;0.77;;;;;;;18.31;100.00;101216.59;5054915;28;20081;-50
2023/08/28 08:20:56;;;;;;;0.85;0.63;;;;;;;18.35;100.00;101209.72;5053787;28;20058;-51
2023/08/28 08:23:22;;;;;;;0.35;0.10;;;;;;;18.49;100.00;101213.88;5058431;28;20067;-49
2023/08/28 08:25:47;;;;;;;0.10;0.10;;;;;;;18.64;100.00;101196.53;5064118;28;20089;-48
2023/08/28 08:28:15;;;;;;;5.25;3.13;;;;;;;18.61;100.00;101170.13;5046147;28;20037;-50
2023/08/28 08:30:40;;;;;;;4.22;1.30;;;;;;;18.63;100.00;101087.47;5051386;28;20041;-53
2023/08/28 08:33:05;;;;;;;5.18;2.17;;;;;;;18.71;100.00;101004.69;5049793;28;20559;-51
2023/08/28 08:35:31;;;;;;;5.75;3.28;;;;;;;18.86;100.00;100942.47;5053077;28;20115;-51
2023/08/28 08:37:56;;;;;;;4.22;1.48;;;;;;;18.84;100.00;100900.78;5046360;28;20028;-50
2023/08/28 08:40:26;;;;;;;1.67;0.60;;;;;;;18.68;100.00;100862.81;5060215;28;20024;-48
2023/08/28 08:42:52;;;;;;;4.32;0.77;;;;;;;18.69;100.00;100837.63;5051117;28;20040;-50
2023/08/28 08:45:17;;;;;;;1.25;0.30;;;;;;;18.65;100.00;100828.38;5062485;28;20033;-50
2023/08/28 08:47:47;;;;;;;1.52;0.32;;;;;;;18.72;100.00;100814.84;5048738;28;20035;-50
2023/08/28 08:50:18;;;;;;;1.90;0.52;;;;;;;18.82;100.00;100806.19;5061333;28;20134;-53
2023/08/28 08:52:43;;;;;;;1.23;0.40;;;;;;;18.90;100.00;100798.59;5053502;28;20105;-50
2023/08/28 08:55:30;;;;;;;1.13;0.30;;;;;;;19.07;100.00;100795.94;5054464;28;20469;-51
2023/08/28 08:57:59;;;;;;;0.52;0.30;;;;;;;19.28;100.00;100807.88;5050575;28;20119;-51
2023/08/28 09:00:25;;;;;;;2.85;0.40;;;;;;;19.32;100.00;100792.09;5058394;28;20455;-50
2023/08/28 09:02:52;;;;;;;1.17;0.25;;;;;;;19.19;100.00;100779.78;5053439;28;20055;-49
2023/08/28 09:05:18;;;;;;;1.75;0.45;;;;;;;19.23;100.00;100793.53;5051020;28;20043;-47
2023/08/28 09:07:45;;;;;;;0.80;0.20;;;;;;;19.25;100.00;100792.25;5054870;28;20035;-49
2023/08/28 09:10:12;;;;;;;3.10;0.30;;;;;;;19.22;100.00;100779.28;5057887;28;20040;-52
2023/08/28 09:12:38;;;;;;;0.30;0.00;;;;;;;19.18;100.00;100783.53;5054932;28;20041;-47
2023/08/28 09:15:04;;;;;;;1.17;0.00;;;;;;;19.42;100.00;100789.59;5049516;28;20405;-53
2023/08/28 09:17:30;;;;;;;0.38;0.00;;;;;;;19.57;100.00;100787.19;5049480;28;20036;-50
2023/08/28 09:19:55;;;;;;;0.47;0.22;;;;;;;19.48;100.00;100782.44;5052401;28;20050;-52
2023/08/28 09:22:25;;;;;;;0.82;0.55;;;;;;;19.28;100.00;100775.63;5058036;28;20033;-49
2023/08/28 09:24:52;;;;;;;0.40;0.10;;;;;;;19.22;100.00;100791.91;5055785;28;20036;-51
2023/08/28 09:27:18;;;;;;;0.08;0.03;;;;;;;18.95;100.00;100782.56;5053663;28;20028;-52
2023/08/28 09:29:43;;;;;;;0.80;0.03;;;;;;;18.91;100.00;100780.59;5051514;28;20024;-51
2023/08/28 09:32:09;;;;;;;0.52;0.00;;;;;;;18.94;100.00;100775.53;5048033;28;20049;-50
2023/08/28 09:34:39;;;;;;;0.10;0.00;;;;;;;19.06;100.00;100786.25;5042450;28;20512;-51
2023/08/28 09:37:11;;;;;;;0.00;0.00;;;;;;;19.17;100.00;100795.31;5053206;28;20033;-50
2023/08/28 09:39:40;;;;;;;0.10;0.00;;;;;;;19.11;100.00;100791.72;5052984;28;20024;-51
2023/08/28 09:42:07;;;;;;;0.10;0.00;;;;;;;19.01;100.00;100772.72;5053125;28;20029;-50
2023/08/28 09:44:37;;;;;;;0.43;0.00;;;;;;;18.96;100.00;100776.13;5049591;28;20051;-47
2023/08/28 09:47:03;;;;;;;0.47;0.00;;;;;;;19.08;100.00;100775.28;5049267;28;20464;-51
2023/08/28 09:49:28;;;;;;;0.10;0.00;;;;;;;19.09;100.00;100763.47;5052646;28;20510;-47
2023/08/28 09:51:58;;;;;;;0.00;0.00;;;;;;;19.01;100.00;100763.84;5053823;28;20028;-52
2023/08/28 09:54:24;;;;;;;0.30;0.00;;;;;;;19.16;100.00;100753.38;5053998;28;20028;-50
2023/08/28 09:56:51;;;;;;;0.00;0.00;;;;;;;17.66;100.00;100783.44;5045649;28;20024;-51
2023/08/28 09:59:16;;;;;;;0.20;0.00;;;;;;;18.38;100.00;100808.44;5054981;28;20615;-48
2023/08/28 10:01:42;;;;;;;0.28;0.00;;;;;;;18.94;100.00;100790.84;5058246;28;20035;-51
2023/08/28 10:04:10;;;;;;;1.25;0.00;;;;;;;18.63;100.00;100800.13;5052123;28;20026;-50
2023/08/28 10:06:39;;;;;;;0.28;0.28;;;;;;;18.62;100.00;100807.38;5059334;28;20040;-47
2023/08/28 10:09:08;;;;;;;0.10;0.10;;;;;;;18.52;100.00;100797.22;5051692;28;20040;-51
2023/08/28 10:11:39;;;;;;;0.08;0.08;;;;;;;18.55;100.00;100801.31;5056606;28;20040;-52
2023/08/28 10:14:05;;;;;;;0.07;0.07;;;;;;;18.87;100.00;100806.28;5052858;28;20039;-51
2023/08/28 10:16:39;;;;;;;0.75;0.38;;;;;;;18.24;100.00;100797.13;5051538;28;20765;-54
2023/08/28 10:19:17;;;;;;;1.45;0.00;;;;;;;17.22;100.00;100803.47;5054677;28;20032;-52
2023/08/28 10:21:43;;;;;;;0.80;0.10;;;;;;;17.70;100.00;100829.34;5043615;28;20032;-50
2023/08/28 10:24:12;;;;;;;0.95;0.00;;;;;;;17.95;100.00;100823.03;5049365;28;20052;-47
2023/08/28 10:26:38;;;;;;;0.35;0.20;;;;;;;17.35;100.00;100840.78;5052061;28;20024;-50
2023/08/28 10:29:06;;;;;;;0.57;0.00;;;;;;;17.11;100.00;100813.06;5063628;28;20028;-48
2023/08/28 10:31:32;;;;;;;0.25;0.00;;;;;;;17.05;100.00;100811.28;5046382;28;20048;-49
2023/08/28 10:33:58;;;;;;;1.10;0.00;;;;;;;17.55;100.00;100823.59;5049327;28;20075;-52
2023/08/28 10:36:24;;;;;;;0.47;0.47;;;;;;;18.64;100.00;100793.69;5039037;28;20039;-48
2023/08/28 10:38:52;;;;;;;2.05;0.00;;;;;;;19.45;100.00;100750.66;5048727;28;20106;-48
2023/08/28 10:41:19;;;;;;;0.10;0.10;;;;;;;18.62;100.00;100750.16;5044495;28;20054;-49
2023/08/28 10:43:48;;;;;;;0.00;0.00;;;;;;;18.77;100.00;100779.22;5050388;28;20025;-50
2023/08/28 10:46:14;;;;;;;0.10;0.10;;;;;;;19.01;100.00;100772.72;5029430;28;20040;-52
2023/08/28 10:48:39;;;;;;;0.45;0.00;;;;;;;19.03;100.00;100776.00;5052440;28;20032;-54
2023/08/28 10:51:10;;;;;;;0.10;0.00;;;;;;;18.90;100.00;100747.53;5049346;28;20493;-52
2023/08/28 10:53:35;;;;;;;0.88;0.10;;;;;;;19.35;100.00;100741.34;5045639;28;20087;-51
2023/08/28 10:56:01;;;;;;;0.10;0.00;;;;;;;20.23;100.00;100738.13;5048503;28;20123;-52
2023/08/28 10:58:30;;;;;;;0.30;0.00;;;;;;;20.22;100.00;100710.41;5048677;28;20120;-51
2023/08/28 11:01:15;;;;;;;3.03;0.30;;;;;;;20.63;100.00;100713.63;5045714;28;20429;-52
2023/08/28 11:03:57;;;;;;;0.17;0.00;;;;;;;20.80;100.00;100704.66;5048343;28;20127;-49
2023/08/28 11:06:38;;;;;;;1.00;0.00;;;;;;;20.58;100.00;100710.88;5039435;28;20139;-51
2023/08/28 11:09:28;;;;;;;0.22;0.00;;;;;;;20.55;100.00;100700.63;5044166;28;20711;-50
2023/08/28 11:12:15;;;;;;;0.80;0.00;;;;;;;20.71;100.00;100704.28;5046818;28;20059;-53
2023/08/28 11:14:55;;;;;;;0.10;0.00;;;;;;;19.56;100.00;100704.84;5040850;28;20063;-55